Tulare, SD (57476)

10:56 AM CST on February 08, 2016 (GMT -0600)
NonFedAWOS | | Change Station
CLOSE
Current Station
Personal Weather Station
Location: Miller, SD
Elevation: 1568 ft
Nearby Weather Stations

Elev 1568 ft 44.53 °N, 98.96 °W | Updated 41 minutes ago

Mostly Cloudy
Mostly Cloudy
27 °F
Feels Like 13 °F
N
22
Wind Variable Wind from NNW
Gusts 36.0 mph

Today
High -- | Low -- °F
--% Chance of Precip.
Yesterday
High -- | Low -- °F
Precip. -- in
Pressure 30.26 in
Visibility 10.0 miles
Clouds Overcast 2900 ft
Windchill 13 °F
Dew Point 16 °F
Humidity 63%
Rainfall in
Snow Depth Not available.
7:45 AM 5:52 PM
New Moon, 0% visible
METAR KHON 081555Z AUTO 35021G28KT 10SM OVC029 M04/M09 A3020 RMK AO2 PK WND 35031/1517 SLP245 T10441089
Pressure 30.26 in
Visibility 10.0 miles
Clouds Overcast 2900 ft
Windchill 13 °F
Dew Point 16 °F
Humidity 63%
Rainfall in
Snow Depth Not available.
7:45 AM 5:52 PM
New Moon, 0% visible
METAR KHON 081555Z AUTO 35021G28KT 10SM OVC029 M04/M09 A3020 RMK AO2 PK WND 35031/1517 SLP245 T10441089

10-Day Weather Forecast

Almanac

Astronomy

Feb. 08, 2016 Rise Set
Actual Time
Civil Twilight
Nautical Twilight
Astronomical Twilight
Moon
Length of Visible Light
Length of Day
Tomorrow will be .
, % of the Moon is Illuminated

Today's Extremes

State Highs State Lows

Community

WunderPhotos

Upload Photos

1,891,462 photos uploaded!

WunderBlog® & News

Nearby

Air Quality

  Air Quality AQ Index Pollutant
Not available.

Snow Depth

Station Depth Elevation

Earthquake Activity

City Distance Mag. Time & Date
Minimum magnitude displayed is 2.5.

Coastal Water Temperatures

Place Temperature

Stations

Nearby Weather Stations

Station Location Temp. Windchill Dew Point Humidity Wind Precip. Elev Updated Type
                   

Watches & Warnings

There are currently no watches in effect.